Terminal Aerodrome Forecast
Issued by NWS

Home | Current Version | Previous Version | Graphics & Text | Print | Product List | Glossary Off
Versions: 1 2 3 4 5 6 7 8 9 10 11 12 13 14 15 16 17 18 19 20 21 22

000
FTUS43 KDDC 250520
TAFHYS
TAF
KHYS 250520Z 2506/2606 09004KT P6SM SCT070 SCT100
     FM251500 05009KT P6SM OVC070
     FM252100 08010KT P6SM VCTS OVC060CB
     FM260300 14005KT P6SM OVC060=

USA.gov is the U.S. government's official web portal to all federal, state and local government web resources and services.